createdAt,value
2022-11-15T00:00:05.553Z,98568.72
2022-11-15T00:02:52.100Z,98565.16
2022-11-15T00:05:38.771Z,98565.41
2022-11-15T00:08:25.501Z,98563.78
2022-11-15T00:11:14.490Z,98558.53
2022-11-15T00:14:03.373Z,98548.88
2022-11-15T00:16:49.763Z,98541.56
2022-11-15T00:19:36.580Z,98534.56
2022-11-15T00:22:23.564Z,98533.75
2022-11-15T00:25:10.410Z,98531.78
2022-11-15T00:27:59.078Z,98517.69
2022-11-15T00:30:45.561Z,98513.31
2022-11-15T00:33:33.158Z,98498.38
2022-11-15T00:36:19.941Z,98486.34
2022-11-15T00:39:07.282Z,98483.25
2022-11-15T00:41:54.126Z,98480.19
2022-11-15T00:44:41.931Z,98483.19
2022-11-15T00:47:28.591Z,98464.09
2022-11-15T00:50:15.802Z,98453.56
2022-11-15T00:53:02.642Z,98454.16
2022-11-15T00:55:49.373Z,98439.69
2022-11-15T00:58:36.130Z,98425.25
2022-11-15T01:01:28.473Z,98426.63
2022-11-15T01:04:19.369Z,98419.34
2022-11-15T01:07:05.985Z,98421.38
2022-11-15T01:09:52.961Z,98412.16
2022-11-15T01:12:39.470Z,98411.34
2022-11-15T01:15:25.940Z,98404.13
2022-11-15T01:18:12.551Z,98408.50
2022-11-15T01:21:00.473Z,98399.81
2022-11-15T01:23:47.438Z,98404.13
2022-11-15T01:26:34.061Z,98397.03
2022-11-15T01:29:20.680Z,98389.13
2022-11-15T01:32:07.239Z,98381.84
2022-11-15T01:34:53.839Z,98376.69
2022-11-15T01:37:41.705Z,98369.69
2022-11-15T01:40:28.050Z,98361.59
2022-11-15T01:43:35.061Z,98342.16
2022-11-15T01:46:30.993Z,98331.63
2022-11-15T01:49:21.805Z,98307.03
2022-11-15T01:52:14.509Z,98296.34
2022-11-15T01:55:07.740Z,98302.22
2022-11-15T01:57:58.153Z,98309.84
2022-11-15T02:00:45.272Z,98303.13
2022-11-15T02:03:40.270Z,98285.03
2022-11-15T02:06:26.892Z,98276.09
2022-11-15T02:09:14.441Z,98261.94
2022-11-15T02:12:02.618Z,98249.53
2022-11-15T02:14:52.309Z,98253.00
2022-11-15T02:17:55.303Z,98241.50
2022-11-15T02:20:49.250Z,98235.16
2022-11-15T02:23:54.430Z,98236.69
2022-11-15T02:27:11.490Z,98232.78
2022-11-15T02:30:20.720Z,98216.84
2022-11-15T02:33:22.569Z,98219.97
2022-11-15T02:36:14.519Z,98209.13
2022-11-15T02:39:08.490Z,98204.47
2022-11-15T02:41:58.931Z,98196.41
2022-11-15T02:44:55.970Z,98188.25
2022-11-15T02:47:47.810Z,98173.38
2022-11-15T02:50:35.429Z,98167.09
2022-11-15T02:53:26.249Z,98165.25
2022-11-15T02:56:14.343Z,98158.94
2022-11-15T02:59:15.230Z,98144.72
2022-11-15T03:02:15.711Z,98143.69
2022-11-15T03:05:11.479Z,98133.94
2022-11-15T03:08:04.680Z,98122.50
2022-11-15T03:11:02.742Z,98125.91
2022-11-15T03:13:55.164Z,98117.09
2022-11-15T03:16:49.310Z,98116.88
2022-11-15T03:19:42.762Z,98113.16
2022-11-15T03:22:35.280Z,98102.44
2022-11-15T03:25:25.310Z,98096.09
2022-11-15T03:28:18.489Z,98089.91
2022-11-15T03:31:28.253Z,98097.03
2022-11-15T03:34:23.655Z,98088.31
2022-11-15T03:37:13.348Z,98078.84
2022-11-15T03:40:01.381Z,98086.91
2022-11-15T03:42:57.339Z,98075.75
2022-11-15T03:45:49.850Z,98078.69
2022-11-15T03:48:41.852Z,98064.91
2022-11-15T03:51:28.438Z,98058.06
2022-11-15T03:54:16.180Z,98047.59
2022-11-15T03:57:04.314Z,98037.09
2022-11-15T03:59:51.078Z,98035.22
2022-11-15T04:02:37.789Z,98024.53
2022-11-15T04:05:24.478Z,98010.28
2022-11-15T04:08:11.056Z,98010.84
2022-11-15T04:10:57.620Z,98001.06
2022-11-15T04:13:45.349Z,97987.78
2022-11-15T04:16:31.917Z,97991.97
2022-11-15T04:19:36.871Z,97979.81
2022-11-15T04:22:41.220Z,97974.44
2022-11-15T04:25:32.108Z,97981.38
2022-11-15T04:28:19.550Z,97978.84
2022-11-15T04:31:07.580Z,97967.53
2022-11-15T04:33:54.811Z,97969.19
2022-11-15T04:36:58.451Z,97963.00
2022-11-15T04:39:45.510Z,97953.47
2022-11-15T04:42:32.059Z,97963.94
2022-11-15T04:45:18.772Z,97962.09
2022-11-15T04:48:07.260Z,97958.53
2022-11-15T04:50:53.539Z,97951.38
2022-11-15T04:53:40.180Z,97956.41
2022-11-15T04:56:26.802Z,97950.03
2022-11-15T04:59:13.540Z,97950.69
2022-11-15T05:02:00.164Z,97942.44
2022-11-15T05:04:47.232Z,97935.81
2022-11-15T05:07:33.687Z,97932.75
2022-11-15T05:10:20.011Z,97926.28
2022-11-15T05:13:06.777Z,97912.00
2022-11-15T05:15:53.389Z,97912.56
2022-11-15T05:18:41.619Z,97906.13
2022-11-15T05:21:29.727Z,97911.19
2022-11-15T05:24:16.329Z,97895.31
2022-11-15T05:27:02.808Z,97883.97
2022-11-15T05:29:49.499Z,97876.94
2022-11-15T05:32:36.218Z,97880.41
2022-11-15T05:35:31.951Z,97889.97
2022-11-15T05:38:19.981Z,97881.97
2022-11-15T05:41:07.110Z,97867.91
2022-11-15T05:43:54.299Z,97866.00
2022-11-15T05:46:42.700Z,97866.84
2022-11-15T05:49:33.707Z,97854.44
2022-11-15T05:52:24.558Z,97855.19
2022-11-15T05:55:12.356Z,97847.09
2022-11-15T05:57:58.878Z,97846.25
2022-11-15T06:00:45.577Z,97853.19
2022-11-15T06:03:32.801Z,97842.69
2022-11-15T06:06:19.480Z,97844.34
2022-11-15T06:09:06.163Z,97839.94
2022-11-15T06:11:54.184Z,97828.59
2022-11-15T06:14:40.818Z,97827.56
2022-11-15T06:17:27.537Z,97825.88
2022-11-15T06:20:14.320Z,97828.41
2022-11-15T06:23:01.250Z,97819.75
2022-11-15T06:25:48.062Z,97819.56
2022-11-15T06:28:36.329Z,97812.63
2022-11-15T06:31:23.228Z,97806.31
2022-11-15T06:34:09.719Z,97803.69
2022-11-15T06:36:56.461Z,97794.84
2022-11-15T06:39:42.990Z,97786.97
2022-11-15T06:42:29.419Z,97790.34
2022-11-15T06:45:17.749Z,97784.03
2022-11-15T06:48:04.590Z,97772.56
2022-11-15T06:50:53.868Z,97767.19
2022-11-15T06:53:40.589Z,97758.38
2022-11-15T06:56:27.277Z,97759.13
2022-11-15T06:59:14.084Z,97763.41
2022-11-15T07:02:02.080Z,97746.69
2022-11-15T07:04:48.600Z,97745.75
2022-11-15T07:07:35.580Z,97739.53
2022-11-15T07:10:23.020Z,97743.63
2022-11-15T07:13:09.959Z,97728.69
2022-11-15T07:15:56.933Z,97728.59
2022-11-15T07:18:44.630Z,97722.38
2022-11-15T07:21:31.280Z,97714.41
2022-11-15T07:24:18.250Z,97708.31
2022-11-15T07:27:04.851Z,97700.91
2022-11-15T07:29:51.588Z,97706.16
2022-11-15T07:32:38.360Z,97689.34
2022-11-15T07:35:27.483Z,97685.75
2022-11-15T07:38:15.830Z,97675.97
2022-11-15T07:41:04.180Z,97675.84
2022-11-15T07:43:53.750Z,97663.66
2022-11-15T07:46:40.120Z,97660.94
2022-11-15T07:49:26.935Z,97659.03
2022-11-15T07:52:15.312Z,97665.13
2022-11-15T07:55:02.088Z,97657.97
2022-11-15T07:57:48.642Z,97674.34
2022-11-15T08:00:36.453Z,97645.31
2022-11-15T08:03:23.310Z,97642.69
2022-11-15T08:06:09.889Z,97644.34
2022-11-15T08:08:58.049Z,97636.25
2022-11-15T08:11:44.553Z,97624.78
2022-11-15T08:14:31.290Z,97623.81
2022-11-15T08:17:17.831Z,97617.63
2022-11-15T08:20:05.056Z,97616.66
2022-11-15T08:22:51.824Z,97611.22
2022-11-15T08:25:40.032Z,97624.22
2022-11-15T08:28:26.418Z,97605.72
2022-11-15T08:31:16.704Z,97600.22
2022-11-15T08:34:03.411Z,97600.09
2022-11-15T08:36:49.748Z,97607.88
2022-11-15T08:39:36.618Z,97601.66
2022-11-15T08:42:24.642Z,97600.59
2022-11-15T08:45:11.882Z,97585.66
2022-11-15T08:47:58.340Z,97582.06
2022-11-15T08:50:45.528Z,97578.47
2022-11-15T08:53:32.081Z,97571.44
2022-11-15T08:56:18.809Z,97567.72
2022-11-15T08:59:06.881Z,97569.41
2022-11-15T09:01:53.305Z,97562.22
2022-11-15T09:04:41.252Z,97560.31
2022-11-15T09:07:27.896Z,97555.88
2022-11-15T09:10:14.512Z,97551.47
2022-11-15T09:13:01.454Z,97543.47
2022-11-15T09:15:49.448Z,97551.25
2022-11-15T09:18:36.742Z,97557.22
2022-11-15T09:21:23.690Z,97552.66
2022-11-15T09:24:10.669Z,97541.19
2022-11-15T09:26:58.287Z,97548.22
2022-11-15T09:29:45.019Z,97538.31
2022-11-15T09:32:38.851Z,97544.28
2022-11-15T09:35:26.055Z,97538.06
2022-11-15T09:38:12.900Z,97530.91
2022-11-15T09:41:18.125Z,97517.75
2022-11-15T09:44:25.314Z,97516.53
2022-11-15T09:47:43.303Z,97507.72
2022-11-15T09:50:38.649Z,97495.25
2022-11-15T09:53:06.961Z,97489.88
2022-11-15T09:55:44.910Z,97495.84
2022-11-15T09:58:25.019Z,97485.09
2022-11-15T10:00:55.076Z,97481.50
2022-11-15T10:03:29.420Z,97486.75
2022-11-15T10:06:03.709Z,97485.91
2022-11-15T10:08:47.253Z,97481.50
2022-11-15T10:11:36.731Z,97478.84
2022-11-15T10:14:13.241Z,97469.16
2022-11-15T10:17:11.002Z,97461.28
2022-11-15T10:19:48.531Z,97472.75
2022-11-15T10:22:27.767Z,97469.28
2022-11-15T10:25:13.534Z,97465.69
2022-11-15T10:27:43.271Z,97454.22
2022-11-15T10:30:15.026Z,97451.56
2022-11-15T10:32:45.510Z,97439.38
2022-11-15T10:35:22.651Z,97438.56
2022-11-15T10:37:52.274Z,97437.72
2022-11-15T10:40:23.512Z,97434.00
2022-11-15T10:43:07.631Z,97415.56
2022-11-15T10:45:36.245Z,97406.00
2022-11-15T10:48:24.523Z,97402.53
2022-11-15T10:50:55.314Z,97401.72
2022-11-15T10:53:31.612Z,97403.38
2022-11-15T10:56:04.652Z,97392.72
2022-11-15T10:58:37.078Z,97379.44
2022-11-15T11:01:13.387Z,97377.75
2022-11-15T11:03:43.021Z,97362.81
2022-11-15T11:06:14.071Z,97369.75
2022-11-15T11:08:56.762Z,97365.19
2022-11-15T11:11:25.297Z,97359.09
2022-11-15T11:13:54.589Z,97364.38
2022-11-15T11:16:39.173Z,97352.19
2022-11-15T11:19:20.735Z,97348.81
2022-11-15T11:21:56.312Z,97341.88
2022-11-15T11:24:35.174Z,97335.78
2022-11-15T11:27:24.091Z,97323.59
2022-11-15T11:30:04.474Z,97360.44
2022-11-15T11:32:55.036Z,97380.66
2022-11-15T11:35:29.594Z,97388.69
2022-11-15T11:38:10.983Z,97370.75
2022-11-15T11:40:46.567Z,97346.75
2022-11-15T11:43:23.449Z,97321.63
2022-11-15T11:46:10.290Z,97319.97
2022-11-15T11:48:43.971Z,97331.47
2022-11-15T11:51:15.390Z,97338.38
2022-11-15T11:53:48.849Z,97342.44
2022-11-15T11:56:26.461Z,97358.94
2022-11-15T11:58:58.630Z,97354.63
2022-11-15T12:01:31.531Z,97350.56
2022-11-15T12:04:03.583Z,97364.31
2022-11-15T12:06:37.690Z,97332.34
2022-11-15T12:09:14.600Z,97327.19
2022-11-15T12:11:56.116Z,97317.75
2022-11-15T12:14:30.411Z,97355.31
2022-11-15T12:16:59.805Z,97352.69
2022-11-15T12:19:28.170Z,97309.09
2022-11-15T12:22:05.011Z,97333.63
2022-11-15T12:24:39.720Z,97341.66
2022-11-15T12:27:21.926Z,97342.03
2022-11-15T12:29:58.919Z,97330.88
2022-11-15T12:32:29.980Z,97333.25
2022-11-15T12:34:58.939Z,97326.00
2022-11-15T12:37:50.300Z,97317.88
2022-11-15T12:40:23.621Z,97321.50
2022-11-15T12:43:22.772Z,97334.59
2022-11-15T12:45:50.919Z,97343.47
2022-11-15T12:48:49.647Z,97338.31
2022-11-15T12:51:18.590Z,97350.25
2022-11-15T12:53:46.627Z,97352.84
2022-11-15T12:56:23.714Z,97363.44
2022-11-15T12:58:57.433Z,97357.47
2022-11-15T13:02:03.041Z,97347.38
2022-11-15T13:04:33.002Z,97339.50
2022-11-15T13:07:04.284Z,97347.81
2022-11-15T13:09:52.678Z,97342.88
2022-11-15T13:12:54.011Z,97344.81
2022-11-15T13:15:55.452Z,97357.19
2022-11-15T13:18:36.244Z,97349.38
2022-11-15T13:21:28.250Z,97347.25
2022-11-15T13:23:57.531Z,97353.50
2022-11-15T13:26:26.362Z,97347.97
2022-11-15T13:28:56.474Z,97354.97
2022-11-15T13:31:31.777Z,97355.16
2022-11-15T13:34:03.170Z,97354.78
2022-11-15T13:36:34.313Z,97348.09
2022-11-15T13:39:04.942Z,97357.47
2022-11-15T13:41:35.319Z,97363.25
2022-11-15T13:44:05.780Z,97370.31
2022-11-15T13:46:36.020Z,97366.84
2022-11-15T13:49:05.879Z,97370.44
2022-11-15T13:51:39.127Z,97375.25
2022-11-15T13:54:17.574Z,97387.50
2022-11-15T13:56:50.103Z,97389.69
2022-11-15T13:59:25.429Z,97377.66
2022-11-15T14:01:56.029Z,97389.66
2022-11-15T14:04:26.440Z,97390.66
2022-11-15T14:06:57.410Z,97395.81
2022-11-15T14:09:34.930Z,97394.25
2022-11-15T14:12:22.701Z,97405.75
2022-11-15T14:14:50.901Z,97396.31
2022-11-15T14:17:24.607Z,97411.34
2022-11-15T14:19:53.414Z,97409.94
2022-11-15T14:22:23.931Z,97412.31
2022-11-15T14:25:09.799Z,97412.09
2022-11-15T14:27:37.990Z,97406.09
2022-11-15T14:30:06.710Z,97410.91
2022-11-15T14:32:45.951Z,97410.63
2022-11-15T14:35:17.750Z,97413.97
2022-11-15T14:37:46.070Z,97417.22
2022-11-15T14:40:16.943Z,97414.94
2022-11-15T14:42:46.769Z,97425.91
2022-11-15T14:45:16.688Z,97430.59
2022-11-15T14:47:46.749Z,97413.03
2022-11-15T14:50:16.720Z,97417.31
2022-11-15T14:52:45.302Z,97414.69
2022-11-15T14:55:20.229Z,97403.22
2022-11-15T14:57:48.870Z,97416.25
2022-11-15T15:00:18.045Z,97413.53
2022-11-15T15:02:48.877Z,97419.22
2022-11-15T15:05:20.000Z,97408.84
2022-11-15T15:07:49.325Z,97406.81
2022-11-15T15:13:10.599Z,97406.19
2022-11-15T15:15:39.882Z,97408.91
2022-11-15T15:18:09.694Z,97409.13
2022-11-15T15:20:40.810Z,97422.47
2022-11-15T15:23:17.449Z,97424.19
2022-11-15T15:25:46.638Z,97420.69
2022-11-15T15:28:14.819Z,97417.19
2022-11-15T15:30:43.426Z,97418.69
2022-11-15T15:33:12.820Z,97427.75
2022-11-15T15:35:41.072Z,97417.69
2022-11-15T15:38:13.001Z,97422.75
2022-11-15T15:40:41.419Z,97422.34
2022-11-15T15:43:10.278Z,97423.03
2022-11-15T15:45:40.359Z,97417.81
2022-11-15T15:48:14.791Z,97415.50
2022-11-15T15:50:44.171Z,97413.31
2022-11-15T15:53:13.481Z,97419.84
2022-11-15T15:55:41.722Z,97412.63
2022-11-15T15:58:10.239Z,97411.78
2022-11-15T16:00:38.688Z,97411.50
2022-11-15T16:03:06.822Z,97409.31
2022-11-15T16:05:36.432Z,97426.91
2022-11-15T16:08:05.282Z,97422.09
2022-11-15T16:10:35.779Z,97412.88
2022-11-15T16:13:04.121Z,97408.13
2022-11-15T16:15:33.913Z,97407.72
2022-11-15T16:18:03.071Z,97415.69
2022-11-15T16:20:38.225Z,97420.16
2022-11-15T16:23:09.609Z,97426.47
2022-11-15T16:25:42.762Z,97422.06
2022-11-15T16:28:30.682Z,97430.44
2022-11-15T16:31:03.080Z,97437.13
2022-11-15T16:33:31.745Z,97436.72
2022-11-15T16:36:01.466Z,97432.16
2022-11-15T16:38:29.699Z,97443.56
2022-11-15T16:40:57.823Z,97447.03
2022-11-15T16:43:26.130Z,97448.28
2022-11-15T16:45:54.210Z,97444.47
2022-11-15T16:48:25.436Z,97432.63
2022-11-15T16:50:57.200Z,97437.53
2022-11-15T16:53:26.970Z,97427.69
2022-11-15T16:55:56.225Z,97428.31
2022-11-15T16:58:25.214Z,97407.34
2022-11-15T17:00:54.638Z,97396.97
2022-11-15T17:03:22.972Z,97395.19
2022-11-15T17:05:51.748Z,97380.28
2022-11-15T17:08:21.799Z,97378.91
2022-11-15T17:10:51.431Z,97368.84
2022-11-15T17:13:19.490Z,97373.13
2022-11-15T17:15:47.603Z,97369.56
2022-11-15T17:18:16.021Z,97383.84
2022-11-15T17:20:44.466Z,97393.81
2022-11-15T17:23:15.524Z,97380.94
2022-11-15T17:25:43.815Z,97386.41
2022-11-15T17:28:13.258Z,97384.44
2022-11-15T17:30:44.172Z,97385.19
2022-11-15T17:33:12.544Z,97382.91
2022-11-15T17:35:40.638Z,97379.13
2022-11-15T17:38:08.781Z,97380.63
2022-11-15T17:40:36.892Z,97382.91
2022-11-15T17:43:06.968Z,97381.44
2022-11-15T17:45:37.575Z,97386.56
2022-11-15T17:48:05.995Z,97400.16
2022-11-15T17:50:34.075Z,97402.28
2022-11-15T17:53:02.247Z,97395.75
2022-11-15T17:55:30.440Z,97390.94
2022-11-15T17:57:58.750Z,97386.34
2022-11-15T18:00:26.923Z,97391.47
2022-11-15T18:02:58.512Z,97387.50
2022-11-15T18:05:26.610Z,97388.66
2022-11-15T18:07:54.614Z,97400.50
2022-11-15T18:10:22.865Z,97394.72
2022-11-15T18:12:50.879Z,97392.41
2022-11-15T18:15:20.791Z,97393.66
2022-11-15T18:17:48.970Z,97393.03
2022-11-15T18:20:18.651Z,97390.63
2022-11-15T18:22:47.190Z,97387.16
2022-11-15T18:25:16.670Z,97384.66
2022-11-15T18:27:44.880Z,97387.16
2022-11-15T18:30:13.609Z,97388.09
2022-11-15T18:32:42.017Z,97389.06
2022-11-15T18:35:10.439Z,97391.84
2022-11-15T18:37:39.790Z,97384.13
2022-11-15T18:40:08.910Z,97378.28
2022-11-15T18:42:37.071Z,97375.66
2022-11-15T18:45:06.405Z,97383.69
2022-11-15T18:47:34.923Z,97385.78
2022-11-15T18:50:03.002Z,97386.63
2022-11-15T18:52:31.179Z,97374.50
2022-11-15T18:55:00.571Z,97388.91
2022-11-15T18:57:28.759Z,97381.06
2022-11-15T18:59:56.879Z,97380.56
2022-11-15T19:02:25.033Z,97375.53
2022-11-15T19:04:53.122Z,97381.88
2022-11-15T19:07:21.275Z,97386.38
2022-11-15T19:09:49.574Z,97390.88
2022-11-15T19:12:19.069Z,97393.50
2022-11-15T19:14:47.161Z,97386.59
2022-11-15T19:17:15.433Z,97396.41
2022-11-15T19:19:43.491Z,97391.28
2022-11-15T19:22:11.588Z,97394.00
2022-11-15T19:24:39.641Z,97401.19
2022-11-15T19:27:07.740Z,97392.41
2022-11-15T19:29:37.087Z,97397.34
2022-11-15T19:32:05.459Z,97403.41
2022-11-15T19:34:33.610Z,97410.53
2022-11-15T19:37:03.319Z,97417.44
2022-11-15T19:39:31.469Z,97422.78
2022-11-15T19:41:59.803Z,97430.63
2022-11-15T19:44:28.501Z,97430.50
2022-11-15T19:46:57.939Z,97439.09
2022-11-15T19:49:26.169Z,97429.28
2022-11-15T19:51:54.339Z,97431.78
2022-11-15T19:54:22.377Z,97432.63
2022-11-15T19:56:51.740Z,97442.13
2022-11-15T19:59:19.851Z,97445.50
2022-11-15T20:01:47.999Z,97447.25
2022-11-15T20:04:17.559Z,97434.84
2022-11-15T20:06:45.811Z,97440.06
2022-11-15T20:09:15.881Z,97433.28
2022-11-15T20:11:44.052Z,97428.13
2022-11-15T20:14:13.187Z,97423.72
2022-11-15T20:16:41.912Z,97423.09
2022-11-15T20:19:12.185Z,97432.00
2022-11-15T20:21:41.776Z,97429.47
2022-11-15T20:24:10.066Z,97425.81
2022-11-15T20:26:38.993Z,97427.59
2022-11-15T20:29:07.309Z,97437.22
2022-11-15T20:31:35.369Z,97444.03
2022-11-15T20:34:03.748Z,97436.81
2022-11-15T20:36:32.028Z,97435.78
2022-11-15T20:39:01.860Z,97438.28
2022-11-15T20:41:30.178Z,97442.78
2022-11-15T20:43:58.168Z,97438.50
2022-11-15T20:46:26.297Z,97438.50
2022-11-15T20:48:54.438Z,97432.44
2022-11-15T20:51:22.621Z,97435.06
2022-11-15T20:53:50.888Z,97436.72
2022-11-15T20:56:22.218Z,97436.63
2022-11-15T20:58:51.527Z,97432.22
2022-11-15T21:01:23.818Z,97445.59
2022-11-15T21:03:53.053Z,97441.41
2022-11-15T21:06:21.354Z,97436.56
2022-11-15T21:09:07.772Z,97442.84
2022-11-15T21:11:55.333Z,97439.03
2022-11-15T21:14:23.569Z,97449.81
2022-11-15T21:16:51.839Z,97447.38
2022-11-15T21:19:24.101Z,97455.31
2022-11-15T21:21:55.365Z,97444.22
2022-11-15T21:24:24.657Z,97449.63
2022-11-15T21:26:54.658Z,97443.13
2022-11-15T21:29:22.778Z,97440.78
2022-11-15T21:31:52.550Z,97454.34
2022-11-15T21:34:21.523Z,97457.53
2022-11-15T21:36:49.600Z,97470.69
2022-11-15T21:39:17.717Z,97480.22
2022-11-15T21:41:45.897Z,97490.47
2022-11-15T21:44:15.387Z,97483.28
2022-11-15T21:46:43.747Z,97489.25
2022-11-15T21:49:12.038Z,97491.13
2022-11-15T21:51:40.269Z,97488.69
2022-11-15T21:54:08.679Z,97498.41
2022-11-15T21:56:36.905Z,97494.19
2022-11-15T21:59:04.959Z,97499.41
2022-11-15T22:01:52.251Z,97509.03
2022-11-15T22:04:21.521Z,97514.25
2022-11-15T22:06:49.695Z,97510.75
2022-11-15T22:09:18.060Z,97502.97
2022-11-15T22:11:46.843Z,97510.75
2022-11-15T22:14:15.007Z,97501.97
2022-11-15T22:16:44.478Z,97498.22
2022-11-15T22:19:12.631Z,97491.50
2022-11-15T22:21:40.900Z,97496.91
2022-11-15T22:24:09.798Z,97506.53
2022-11-15T22:26:38.089Z,97502.44
2022-11-15T22:29:06.285Z,97495.81
2022-11-15T22:31:34.420Z,97500.38
2022-11-15T22:34:04.228Z,97504.94
2022-11-15T22:36:46.826Z,97502.41
2022-11-15T22:39:21.014Z,97510.19
2022-11-15T22:41:49.110Z,97499.53
2022-11-15T22:44:17.251Z,97496.19
2022-11-15T22:46:45.389Z,97500.72
2022-11-15T22:49:14.844Z,97492.06
2022-11-15T22:51:42.932Z,97499.16
2022-11-15T22:54:11.153Z,97484.44
2022-11-15T22:56:39.290Z,97496.91
2022-11-15T22:59:07.462Z,97492.63
2022-11-15T23:01:35.621Z,97495.41
2022-11-15T23:04:04.076Z,97497.47
2022-11-15T23:06:33.702Z,97501.94
2022-11-15T23:09:01.960Z,97492.63
2022-11-15T23:11:47.580Z,97488.50
2022-11-15T23:14:15.920Z,97487.09
2022-11-15T23:16:44.003Z,97488.13
2022-11-15T23:19:13.478Z,97491.84
2022-11-15T23:22:02.022Z,97498.94
2022-11-15T23:24:30.556Z,97500.59
2022-11-15T23:27:00.651Z,97502.28
2022-11-15T23:29:29.872Z,97498.72
2022-11-15T23:32:16.195Z,97490.00
2022-11-15T23:34:45.937Z,97491.69
2022-11-15T23:37:17.052Z,97491.69
2022-11-15T23:39:45.261Z,97492.03
2022-11-15T23:42:19.989Z,97489.78
2022-11-15T23:44:50.753Z,97494.25
2022-11-15T23:47:19.294Z,97496.94
2022-11-15T23:49:47.523Z,97498.72
2022-11-15T23:52:17.454Z,97492.50
2022-11-15T23:54:46.121Z,97491.25
2022-11-15T23:57:14.350Z,97483.28
2022-11-15T23:59:44.140Z,97490.91
